createdAt,value
2023-04-14T00:00:17.842Z,269.69
2023-04-14T00:01:13.169Z,267.71
2023-04-14T00:02:08.292Z,270.80
2023-04-14T00:03:03.478Z,268.36
2023-04-14T00:03:58.403Z,269.24
2023-04-14T00:04:53.490Z,271.92
2023-04-14T00:05:48.383Z,271.25
2023-04-14T00:06:43.439Z,271.92
2023-04-14T00:07:38.492Z,274.88
2023-04-14T00:08:33.849Z,279.09
2023-04-14T00:09:28.927Z,280.77
2023-04-14T00:10:23.946Z,278.38
2023-04-14T00:11:19.007Z,273.74
2023-04-14T00:12:14.067Z,272.37
2023-04-14T00:13:09.310Z,272.83
2023-04-14T00:14:04.254Z,274.88
2023-04-14T00:14:59.413Z,281.25
2023-04-14T00:15:54.312Z,285.40
2023-04-14T00:16:49.425Z,290.71
2023-04-14T00:17:44.599Z,293.05
2023-04-14T00:18:39.478Z,296.23
2023-04-14T00:19:34.461Z,298.93
2023-04-14T00:20:29.520Z,299.47
2023-04-14T00:21:24.565Z,302.51
2023-04-14T00:22:19.581Z,303.91
2023-04-14T00:23:14.767Z,307.33
2023-04-14T00:24:09.656Z,309.35
2023-04-14T00:25:04.704Z,310.52
2023-04-14T00:25:59.744Z,315.60
2023-04-14T00:26:54.876Z,319.91
2023-04-14T00:27:50.322Z,322.11
2023-04-14T00:28:45.895Z,324.98
2023-04-14T00:29:41.077Z,322.74
2023-04-14T00:30:36.267Z,325.62
2023-04-14T00:31:32.226Z,326.60
2023-04-14T00:32:27.431Z,328.23
2023-04-14T00:33:22.737Z,328.56
2023-04-14T00:34:19.012Z,329.55
2023-04-14T00:35:14.219Z,334.93
2023-04-14T00:36:09.930Z,337.34
2023-04-14T00:37:05.121Z,342.63
2023-04-14T00:38:00.302Z,342.27
2023-04-14T00:38:56.248Z,346.24
2023-04-14T00:39:51.407Z,352.57
2023-04-14T00:40:47.415Z,355.24
2023-04-14T00:41:42.457Z,359.91
2023-04-14T00:42:37.954Z,358.34
2023-04-14T00:43:33.561Z,358.73
2023-04-14T00:44:28.743Z,359.91
2023-04-14T00:45:23.993Z,354.85
2023-04-14T00:46:20.347Z,351.06
2023-04-14T00:47:15.534Z,351.81
2023-04-14T00:48:11.423Z,343.70
2023-04-14T00:49:06.594Z,341.56
2023-04-14T00:50:01.933Z,341.56
2023-04-14T00:50:57.540Z,343.70
2023-04-14T00:51:52.755Z,339.08
2023-04-14T00:52:48.676Z,341.20
2023-04-14T00:53:43.712Z,342.63
2023-04-14T00:54:39.026Z,346.61
2023-04-14T00:55:34.679Z,343.34
2023-04-14T00:56:29.882Z,347.71
2023-04-14T00:57:25.116Z,346.97
2023-04-14T00:58:21.303Z,348.82
2023-04-14T00:59:16.550Z,349.93
2023-04-14T01:00:12.289Z,345.15
2023-04-14T01:01:07.455Z,345.88
2023-04-14T01:02:02.603Z,346.61
2023-04-14T01:02:58.442Z,349.19
2023-04-14T01:03:53.796Z,345.88
2023-04-14T01:04:54.181Z,344.06
2023-04-14T01:05:45.497Z,335.96
2023-04-14T01:06:40.277Z,322.42
2023-04-14T01:07:35.504Z,314.09
2023-04-14T01:08:31.340Z,303.07
2023-04-14T01:09:26.392Z,289.69
2023-04-14T01:10:21.698Z,281.73
2023-04-14T01:11:17.625Z,270.80
2023-04-14T01:12:12.783Z,265.97
2023-04-14T01:13:08.325Z,260.07
2023-04-14T01:14:04.343Z,255.61
2023-04-14T01:14:59.545Z,252.66
2023-04-14T01:15:55.318Z,251.50
2023-04-14T01:16:50.447Z,251.88
2023-04-14T01:17:45.788Z,249.02
2023-04-14T01:18:41.569Z,248.45
2023-04-14T01:19:36.764Z,248.64
2023-04-14T01:20:32.543Z,245.66
2023-04-14T01:21:27.726Z,241.32
2023-04-14T01:22:23.031Z,238.86
2023-04-14T01:23:18.698Z,234.60
2023-04-14T01:24:13.909Z,232.60
2023-04-14T01:25:09.142Z,229.83
2023-04-14T01:26:05.308Z,227.28
2023-04-14T01:27:00.546Z,226.50
2023-04-14T01:27:56.308Z,228.23
2023-04-14T01:28:51.537Z,229.19
2023-04-14T01:29:46.583Z,229.67
2023-04-14T01:30:41.759Z,229.99
2023-04-14T01:31:37.739Z,233.26
2023-04-14T01:32:32.733Z,231.61
2023-04-14T01:33:28.353Z,232.60
2023-04-14T01:34:23.831Z,232.76
2023-04-14T01:35:19.038Z,230.48
2023-04-14T01:36:14.204Z,229.83
2023-04-14T01:37:10.639Z,229.35
2023-04-14T01:38:05.852Z,226.18
2023-04-14T01:39:02.080Z,223.11
2023-04-14T01:39:56.833Z,221.90
2023-04-14T01:40:51.927Z,219.97
2023-04-14T01:41:47.655Z,215.49
2023-04-14T01:42:42.907Z,213.39
2023-04-14T01:43:38.642Z,211.74
2023-04-14T01:44:33.827Z,209.44
2023-04-14T01:45:29.077Z,210.92
2023-04-14T01:46:24.253Z,213.53
2023-04-14T01:47:19.435Z,217.06
2023-04-14T01:48:14.643Z,216.63
2023-04-14T01:49:09.519Z,217.20
2023-04-14T01:50:04.613Z,219.67
2023-04-14T01:51:03.726Z,217.78
2023-04-14T01:51:58.946Z,216.77
2023-04-14T01:52:54.126Z,210.24
2023-04-14T01:53:49.504Z,207.06
2023-04-14T01:54:45.479Z,200.60
2023-04-14T01:55:40.644Z,197.70
2023-04-14T01:56:35.823Z,198.06
2023-04-14T01:57:35.335Z,194.88
2023-04-14T01:58:30.391Z,196.87
2023-04-14T01:59:25.628Z,199.99
2023-04-14T02:00:20.794Z,204.10
2023-04-14T02:01:15.864Z,204.61
2023-04-14T02:02:10.955Z,208.24
2023-04-14T02:03:06.065Z,212.56
2023-04-14T02:04:01.352Z,218.07
2023-04-14T02:04:56.169Z,218.65
2023-04-14T02:05:51.193Z,222.05
2023-04-14T02:06:46.257Z,224.95
2023-04-14T02:07:41.293Z,230.15
2023-04-14T02:08:36.376Z,234.93
2023-04-14T02:09:31.407Z,239.04
2023-04-14T02:10:26.456Z,243.11
2023-04-14T02:11:22.118Z,246.03
2023-04-14T02:12:16.514Z,250.35
2023-04-14T02:13:11.596Z,253.24
2023-04-14T02:14:06.682Z,254.62
2023-04-14T02:15:01.773Z,253.83
2023-04-14T02:15:56.790Z,253.83
2023-04-14T02:16:52.143Z,252.27
2023-04-14T02:17:47.298Z,251.30
2023-04-14T02:18:42.695Z,249.58
2023-04-14T02:19:37.645Z,247.33
2023-04-14T02:20:32.829Z,241.86
2023-04-14T02:21:28.019Z,236.80
2023-04-14T02:22:23.149Z,232.76
2023-04-14T02:23:18.366Z,230.64
2023-04-14T02:24:13.399Z,232.93
2023-04-14T02:25:08.572Z,232.27
2023-04-14T02:26:03.735Z,236.80
2023-04-14T02:26:58.961Z,237.48
2023-04-14T02:27:54.090Z,240.26
2023-04-14T02:28:49.465Z,244.20
2023-04-14T02:29:44.479Z,246.21
2023-04-14T02:30:39.738Z,251.69
2023-04-14T02:31:34.748Z,257.82
2023-04-14T02:32:29.969Z,260.69
2023-04-14T02:33:25.270Z,264.68
2023-04-14T02:34:22.396Z,265.11
2023-04-14T02:35:17.526Z,266.40
2023-04-14T02:36:12.735Z,269.69
2023-04-14T02:37:07.902Z,271.47
2023-04-14T02:38:03.113Z,274.88
2023-04-14T02:38:58.254Z,279.09
2023-04-14T02:39:53.290Z,281.25
2023-04-14T02:40:48.286Z,286.15
2023-04-14T02:41:43.344Z,290.71
2023-04-14T02:42:38.329Z,295.69
2023-04-14T02:43:33.452Z,302.51
2023-04-14T02:44:28.590Z,301.67
2023-04-14T02:45:23.661Z,303.63
2023-04-14T02:46:19.690Z,305.89
2023-04-14T02:47:14.680Z,304.47
2023-04-14T02:48:09.869Z,311.70
2023-04-14T02:49:04.810Z,317.74
2023-04-14T02:49:59.814Z,319.60
2023-04-14T02:50:54.876Z,328.89
2023-04-14T02:51:49.999Z,335.96
2023-04-14T02:52:45.067Z,340.14
2023-04-14T02:53:40.248Z,342.98
2023-04-14T02:54:35.168Z,342.63
2023-04-14T02:55:30.182Z,343.34
2023-04-14T02:56:25.214Z,343.34
2023-04-14T02:57:20.243Z,340.14
2023-04-14T02:58:15.328Z,344.06
2023-04-14T02:59:10.415Z,344.06
2023-04-14T03:00:05.366Z,343.70
2023-04-14T03:01:03.507Z,346.61
2023-04-14T03:01:58.717Z,345.88
2023-04-14T03:02:53.579Z,347.34
2023-04-14T03:03:48.637Z,345.15
2023-04-14T03:04:43.586Z,340.49
2023-04-14T03:05:38.772Z,337.69
2023-04-14T03:06:33.664Z,335.96
2023-04-14T03:07:28.778Z,330.21
2023-04-14T03:08:23.869Z,327.25
2023-04-14T03:09:18.889Z,324.02
2023-04-14T03:10:13.980Z,321.79
2023-04-14T03:11:09.040Z,225.87
2023-04-14T03:12:04.118Z,181.19
2023-04-14T03:12:59.310Z,186.15
2023-04-14T03:13:54.633Z,186.89
2023-04-14T03:14:50.324Z,189.59
2023-04-14T03:15:45.552Z,202.09
2023-04-14T03:16:41.285Z,219.53
2023-04-14T03:17:36.436Z,224.33
2023-04-14T03:18:31.794Z,223.26
2023-04-14T03:19:27.408Z,229.35
2023-04-14T03:20:23.332Z,238.69
2023-04-14T03:21:17.681Z,245.11
2023-04-14T03:22:12.727Z,245.11
2023-04-14T03:23:07.992Z,244.74
2023-04-14T03:24:02.843Z,246.95
2023-04-14T03:24:57.857Z,245.11
2023-04-14T03:25:52.947Z,247.33
2023-04-14T03:26:48.024Z,251.69
2023-04-14T03:27:43.083Z,255.41
2023-04-14T03:28:43.148Z,259.25
2023-04-14T03:29:38.320Z,264.05
2023-04-14T03:30:33.519Z,265.54
2023-04-14T03:31:29.468Z,265.97
2023-04-14T03:32:24.545Z,268.80
2023-04-14T03:33:19.739Z,271.02
2023-04-14T03:34:16.025Z,271.02
2023-04-14T03:35:11.200Z,266.40
2023-04-14T03:36:06.930Z,266.62
2023-04-14T03:37:02.126Z,272.15
2023-04-14T03:37:57.296Z,278.62
2023-04-14T03:38:53.393Z,282.94
2023-04-14T03:39:48.303Z,289.69
2023-04-14T03:40:44.347Z,289.18
2023-04-14T03:41:39.361Z,283.92
2023-04-14T03:42:34.701Z,283.68
2023-04-14T03:43:30.491Z,282.21
2023-04-14T03:44:25.679Z,285.40
2023-04-14T03:45:20.982Z,287.40
2023-04-14T03:46:17.061Z,273.74
2023-04-14T03:47:12.237Z,273.05
2023-04-14T03:48:08.051Z,276.27
2023-04-14T03:49:03.403Z,279.57
2023-04-14T03:49:58.631Z,279.33
2023-04-14T03:50:54.255Z,275.11
2023-04-14T03:51:49.502Z,264.47
2023-04-14T03:52:45.237Z,263.41
2023-04-14T03:53:40.430Z,267.93
2023-04-14T03:54:35.742Z,268.36
2023-04-14T03:55:31.492Z,268.80
2023-04-14T03:56:26.692Z,270.80
2023-04-14T03:57:21.896Z,273.28
2023-04-14T03:58:18.069Z,273.97
2023-04-14T03:59:13.588Z,270.13
2023-04-14T04:00:08.466Z,270.58
2023-04-14T04:01:03.653Z,274.88
2023-04-14T04:01:59.524Z,274.42
2023-04-14T04:02:54.702Z,276.97
2023-04-14T04:03:50.148Z,273.51
2023-04-14T04:04:45.663Z,275.58
2023-04-14T04:05:40.692Z,278.86
2023-04-14T04:06:35.889Z,281.49
2023-04-14T04:07:32.016Z,286.15
2023-04-14T04:08:27.373Z,289.43
2023-04-14T04:09:23.014Z,292.01
2023-04-14T04:10:18.198Z,290.71
2023-04-14T04:11:13.247Z,289.43
2023-04-14T04:12:09.130Z,292.27
2023-04-14T04:13:04.340Z,290.20
2023-04-14T04:14:00.123Z,290.97
2023-04-14T04:14:55.143Z,293.84
2023-04-14T04:15:50.510Z,296.76
2023-04-14T04:16:45.765Z,302.51
2023-04-14T04:17:40.998Z,307.04
2023-04-14T04:18:36.076Z,290.46
2023-04-14T04:19:31.333Z,269.69
2023-04-14T04:20:26.204Z,256.81
2023-04-14T04:21:21.248Z,247.51
2023-04-14T04:22:16.201Z,239.04
2023-04-14T04:23:11.350Z,241.86
2023-04-14T04:24:06.316Z,246.58
2023-04-14T04:25:01.452Z,238.17
2023-04-14T04:25:56.522Z,240.62
2023-04-14T04:26:51.659Z,249.96
2023-04-14T04:27:46.765Z,258.84
2023-04-14T04:28:43.641Z,252.27
2023-04-14T04:29:38.870Z,255.01
2023-04-14T04:30:34.134Z,265.11
2023-04-14T04:31:33.718Z,268.58
2023-04-14T04:32:28.844Z,269.24
2023-04-14T04:34:49.720Z,256.61
2023-04-14T04:35:43.138Z,262.57
2023-04-14T04:36:38.401Z,266.62
2023-04-14T04:37:33.736Z,264.90
2023-04-14T04:38:28.959Z,271.47
2023-04-14T04:39:24.425Z,274.65
2023-04-14T04:40:19.500Z,273.51
2023-04-14T04:41:14.835Z,272.83
2023-04-14T04:42:10.149Z,276.97
2023-04-14T04:43:05.588Z,267.05
2023-04-14T04:44:00.736Z,188.94
2023-04-14T04:44:56.198Z,159.69
2023-04-14T04:45:51.459Z,159.54
2023-04-14T04:46:46.749Z,176.59
2023-04-14T04:47:42.005Z,185.83
2023-04-14T04:48:37.313Z,185.83
2023-04-14T04:49:32.825Z,195.93
2023-04-14T04:50:27.933Z,191.81
2023-04-14T04:51:23.243Z,189.04
2023-04-14T04:52:18.584Z,180.02
2023-04-14T04:53:13.902Z,176.77
2023-04-14T04:54:09.405Z,191.47
2023-04-14T04:55:04.581Z,205.12
2023-04-14T04:55:59.812Z,210.92
2023-04-14T04:56:55.130Z,215.21
2023-04-14T04:57:50.495Z,219.67
2023-04-14T04:58:45.808Z,230.80
2023-04-14T04:59:41.178Z,242.04
2023-04-14T05:00:36.357Z,247.33
2023-04-14T05:01:31.748Z,255.41
2023-04-14T05:02:26.977Z,263.83
2023-04-14T05:03:22.241Z,269.47
2023-04-14T05:04:17.746Z,273.28
2023-04-14T05:05:12.886Z,268.80
2023-04-14T05:06:08.145Z,273.74
2023-04-14T05:07:03.542Z,269.91
2023-04-14T05:07:58.845Z,252.27
2023-04-14T05:08:54.237Z,227.28
2023-04-14T05:09:49.622Z,213.39
2023-04-14T05:10:45.053Z,204.86
2023-04-14T05:11:40.452Z,207.58
2023-04-14T05:12:35.865Z,218.36
2023-04-14T05:13:31.106Z,218.36
2023-04-14T05:14:27.668Z,203.59
2023-04-14T05:15:21.918Z,195.23
2023-04-14T05:16:17.385Z,195.46
2023-04-14T05:17:12.439Z,199.02
2023-04-14T05:18:08.064Z,203.72
2023-04-14T05:19:03.616Z,209.97
2023-04-14T05:19:58.581Z,183.18
2023-04-14T05:20:53.877Z,185.01
2023-04-14T05:21:49.376Z,192.15
2023-04-14T05:22:44.653Z,190.58
2023-04-14T05:23:40.168Z,162.17
2023-04-14T05:24:35.501Z,160.46
2023-04-14T05:25:31.175Z,170.98
2023-04-14T05:26:49.143Z,174.01
2023-04-14T05:27:23.284Z,180.21
2023-04-14T05:28:17.133Z,181.39
2023-04-14T05:29:12.463Z,181.19
2023-04-14T05:30:07.799Z,187.00
2023-04-14T05:31:03.243Z,207.58
2023-04-14T05:31:58.519Z,222.05
2023-04-14T05:32:54.117Z,232.10
2023-04-14T05:33:49.285Z,245.48
2023-04-14T05:34:44.742Z,243.11
2023-04-14T05:35:40.160Z,247.89
2023-04-14T05:36:35.598Z,245.84
2023-04-14T05:37:30.890Z,244.20
2023-04-14T05:38:26.282Z,251.11
2023-04-14T05:39:22.062Z,227.28
2023-04-14T05:40:17.421Z,205.24
2023-04-14T05:41:12.910Z,191.47
2023-04-14T05:42:08.350Z,186.04
2023-04-14T05:43:03.682Z,187.75
2023-04-14T05:43:59.410Z,194.42
2023-04-14T05:44:54.552Z,210.65
2023-04-14T05:45:50.053Z,217.20
2023-04-14T05:46:45.448Z,199.51
2023-04-14T05:47:40.944Z,200.48
2023-04-14T05:48:36.096Z,199.75
2023-04-14T05:49:31.682Z,204.61
2023-04-14T05:50:26.971Z,212.01
2023-04-14T05:51:22.381Z,221.45
2023-04-14T05:52:17.846Z,201.71
2023-04-14T05:53:13.180Z,195.00
2023-04-14T05:54:08.644Z,212.15
2023-04-14T05:55:03.940Z,231.61
2023-04-14T05:55:58.965Z,246.21
2023-04-14T05:56:54.166Z,262.78
2023-04-14T05:57:49.192Z,272.60
2023-04-14T05:58:45.920Z,283.19
2023-04-14T05:59:40.947Z,292.27
2023-04-14T06:00:36.255Z,291.75
2023-04-14T06:01:31.512Z,286.40
2023-04-14T06:02:26.648Z,284.66
2023-04-14T06:03:21.760Z,274.42
2023-04-14T06:04:16.707Z,197.58
2023-04-14T06:05:11.987Z,187.10
2023-04-14T06:06:06.829Z,189.26
2023-04-14T06:07:01.833Z,195.35
2023-04-14T06:07:57.042Z,197.23
2023-04-14T06:08:52.100Z,199.51
2023-04-14T06:09:47.136Z,197.35
2023-04-14T06:10:42.193Z,196.87
2023-04-14T06:11:37.249Z,203.46
2023-04-14T06:12:32.262Z,206.28
2023-04-14T06:13:28.475Z,209.97
2023-04-14T06:14:22.406Z,224.33
2023-04-14T06:15:17.603Z,227.76
2023-04-14T06:16:12.812Z,224.33
2023-04-14T06:17:07.724Z,231.94
2023-04-14T06:18:02.936Z,240.62
2023-04-14T06:18:58.505Z,240.44
2023-04-14T06:19:53.732Z,249.58
2023-04-14T06:20:49.067Z,250.15
2023-04-14T06:21:44.410Z,259.04
2023-04-14T06:22:40.019Z,269.47
2023-04-14T06:23:35.372Z,276.97
2023-04-14T06:24:30.657Z,285.40
2023-04-14T06:25:25.980Z,284.17
2023-04-14T06:26:21.471Z,299.20
2023-04-14T06:27:16.779Z,312.60
2023-04-14T06:28:12.198Z,306.18
2023-04-14T06:29:07.118Z,286.15
2023-04-14T06:30:02.322Z,279.57
2023-04-14T06:30:57.397Z,277.68
2023-04-14T06:31:52.444Z,279.09
2023-04-14T06:32:52.094Z,294.10
2023-04-14T06:33:47.443Z,308.77
2023-04-14T06:34:42.727Z,323.06
2023-04-14T06:35:38.501Z,339.44
2023-04-14T06:36:33.928Z,337.34
2023-04-14T06:37:29.375Z,349.19
2023-04-14T06:38:25.731Z,351.81
2023-04-14T06:39:20.945Z,364.31
2023-04-14T06:40:16.698Z,366.34
2023-04-14T06:41:12.209Z,374.28
2023-04-14T06:42:07.665Z,388.37
2023-04-14T06:43:03.274Z,402.19
2023-04-14T06:43:58.601Z,415.99
2023-04-14T06:44:54.373Z,388.14
2023-04-14T06:45:49.654Z,388.37
2023-04-14T06:46:45.239Z,408.35
2023-04-14T06:47:40.983Z,346.61
2023-04-14T06:48:36.480Z,306.18
2023-04-14T06:49:31.656Z,321.79
2023-04-14T06:50:28.316Z,359.91
2023-04-14T06:51:23.545Z,392.02
2023-04-14T06:52:19.325Z,411.62
2023-04-14T06:53:14.832Z,432.45
2023-04-14T06:54:10.063Z,428.56
2023-04-14T06:55:05.813Z,435.27
2023-04-14T06:56:01.145Z,425.82
2023-04-14T06:56:57.244Z,423.65
2023-04-14T06:57:52.229Z,441.32
2023-04-14T06:58:47.672Z,456.11
2023-04-14T06:59:44.336Z,467.62
2023-04-14T07:00:39.636Z,461.80
2023-04-14T07:01:35.167Z,434.99
2023-04-14T07:02:31.342Z,429.66
2023-04-14T07:03:26.832Z,457.67
2023-04-14T07:04:22.544Z,395.98
2023-04-14T07:05:17.976Z,407.85
2023-04-14T07:06:13.293Z,433.85
2023-04-14T07:07:09.126Z,451.17
2023-04-14T07:08:04.438Z,480.43
2023-04-14T07:09:00.179Z,512.55
2023-04-14T07:09:55.756Z,516.53
2023-04-14T07:10:50.958Z,538.64
2023-04-14T07:11:46.697Z,550.19
2023-04-14T07:12:42.062Z,537.77
2023-04-14T07:13:37.537Z,546.59
2023-04-14T07:14:33.725Z,557.09
2023-04-14T07:15:29.049Z,579.35
2023-04-14T07:16:25.002Z,630.87
2023-04-14T07:17:20.239Z,655.04
2023-04-14T07:18:15.784Z,666.83
2023-04-14T07:19:11.454Z,670.86
2023-04-14T07:20:06.951Z,646.78
2023-04-14T07:21:02.847Z,638.73
2023-04-14T07:21:58.237Z,651.20
2023-04-14T07:22:53.499Z,644.91
2023-04-14T07:23:49.349Z,670.18
2023-04-14T07:24:44.721Z,704.90
2023-04-14T07:25:40.235Z,745.90
2023-04-14T07:26:36.461Z,774.81
2023-04-14T07:27:31.935Z,812.04
2023-04-14T07:28:27.631Z,851.95
2023-04-14T07:29:23.174Z,834.90
2023-04-14T07:30:18.565Z,803.25
2023-04-14T07:31:14.318Z,800.36
2023-04-14T07:32:09.811Z,814.52
2023-04-14T07:33:05.225Z,748.41
2023-04-14T07:34:00.736Z,764.60
2023-04-14T07:34:57.767Z,818.52
2023-04-14T07:36:02.246Z,857.42
2023-04-14T07:36:48.356Z,888.82
2023-04-14T07:37:42.720Z,923.24
2023-04-14T07:38:39.009Z,920.05
2023-04-14T07:39:34.125Z,937.50
2023-04-14T07:40:29.624Z,890.59
2023-04-14T07:41:25.799Z,920.69
2023-04-14T07:42:21.282Z,948.83
2023-04-14T07:43:17.168Z,986.70
2023-04-14T07:44:12.817Z,1021.42
2023-04-14T07:45:08.181Z,1039.72
2023-04-14T07:46:03.967Z,1062.90
2023-04-14T07:46:59.479Z,1022.21
2023-04-14T07:47:57.567Z,1096.96
2023-04-14T07:48:50.827Z,1052.84
2023-04-14T07:49:46.249Z,994.04
2023-04-14T07:50:41.679Z,1040.53
2023-04-14T07:51:37.168Z,1064.59
2023-04-14T07:52:33.891Z,1080.97
2023-04-14T07:53:29.230Z,1103.31
2023-04-14T07:54:24.592Z,1124.68
2023-04-14T07:55:20.692Z,1139.08
2023-04-14T07:56:15.912Z,1172.08
2023-04-14T07:57:11.218Z,1238.40
2023-04-14T07:58:06.717Z,1247.66
2023-04-14T07:59:03.202Z,1244.18
2023-04-14T07:59:58.306Z,1261.81
2023-04-14T08:00:53.826Z,1263.01
2023-04-14T08:01:52.548Z,1323.09
2023-04-14T08:02:48.158Z,1269.01
2023-04-14T08:03:45.360Z,1257.06
2023-04-14T08:04:38.847Z,1212.53
2023-04-14T08:05:34.007Z,1271.43
2023-04-14T08:06:29.129Z,1254.70
2023-04-14T08:07:24.119Z,1228.15
2023-04-14T08:08:23.472Z,1204.87
2023-04-14T08:09:18.879Z,1207.05
2023-04-14T08:10:14.309Z,1254.70
2023-04-14T08:11:10.159Z,1270.22
2023-04-14T08:12:05.675Z,1259.43
2023-04-14T08:13:03.187Z,1251.17
2023-04-14T08:13:57.392Z,1271.43
2023-04-14T08:14:52.810Z,1303.71
2023-04-14T08:15:48.710Z,1310.11
2023-04-14T08:16:44.214Z,1366.43
2023-04-14T08:17:39.928Z,1399.37
2023-04-14T08:18:35.326Z,1433.94
2023-04-14T08:19:30.798Z,1438.58
2023-04-14T08:20:26.768Z,1421.72
2023-04-14T08:21:22.003Z,1423.24
2023-04-14T08:22:17.552Z,1498.32
2023-04-14T08:23:13.138Z,1411.20
2023-04-14T08:24:08.637Z,1293.60
2023-04-14T08:25:04.117Z,1266.60
2023-04-14T08:26:00.409Z,1340.36
2023-04-14T08:26:55.945Z,1409.71
2023-04-14T08:27:51.847Z,1440.13
2023-04-14T08:28:47.236Z,1379.13
2023-04-14T08:29:42.706Z,1406.74
2023-04-14T08:30:38.561Z,1399.37
2023-04-14T08:31:34.022Z,1457.42
2023-04-14T08:32:30.023Z,1486.64
2023-04-14T08:33:25.295Z,1489.95
2023-04-14T08:34:21.348Z,1421.72
2023-04-14T08:35:35.111Z,1405.26
2023-04-14T08:36:12.998Z,1483.33
2023-04-14T08:37:07.588Z,1414.19
2023-04-14T08:38:02.492Z,1349.85
2023-04-14T08:38:57.629Z,1328.36
2023-04-14T08:39:52.639Z,1327.04
2023-04-14T08:40:47.690Z,1370.64
2023-04-14T08:41:42.756Z,1433.94
2023-04-14T08:42:37.890Z,1446.37
2023-04-14T08:43:32.797Z,1412.70
2023-04-14T08:44:27.906Z,1259.43
2023-04-14T08:45:22.904Z,1259.43
2023-04-14T08:46:18.074Z,1311.40
2023-04-14T08:47:13.135Z,1360.86
2023-04-14T08:48:10.175Z,1426.28
2023-04-14T08:49:05.256Z,1405.26
2023-04-14T08:50:00.454Z,1373.46
2023-04-14T08:50:55.308Z,1252.34
2023-04-14T08:51:50.398Z,1296.12
2023-04-14T08:52:45.474Z,1393.53
2023-04-14T08:53:40.602Z,1519.64
2023-04-14T08:54:35.544Z,1441.69
2023-04-14T08:55:30.626Z,1489.95
2023-04-14T08:56:25.591Z,1384.85
2023-04-14T08:57:21.716Z,1383.42
2023-04-14T08:58:17.089Z,1468.65
2023-04-14T08:59:13.013Z,1508.47
2023-04-14T09:00:08.346Z,1037.30
2023-04-14T09:01:03.924Z,817.51
2023-04-14T09:01:59.862Z,843.34
2023-04-14T09:02:55.493Z,759.82
2023-04-14T09:03:51.333Z,778.88
2023-04-14T09:04:46.727Z,807.62
2023-04-14T09:05:42.075Z,937.50
2023-04-14T09:06:38.109Z,1012.90
2023-04-14T09:07:33.359Z,1099.67
2023-04-14T09:08:28.796Z,1239.55
2023-04-14T09:09:27.537Z,1324.41
2023-04-14T09:10:22.929Z,1337.68
2023-04-14T09:11:18.301Z,1373.46
2023-04-14T09:12:14.167Z,1409.71
2023-04-14T09:13:09.735Z,1505.07
2023-04-14T09:14:05.188Z,1668.75
2023-04-14T09:15:01.793Z,1777.63
2023-04-14T09:15:56.987Z,1733.77
2023-04-14T09:16:52.822Z,1693.09
2023-04-14T09:17:48.208Z,1765.87
2023-04-14T09:18:43.596Z,1757.73
2023-04-14T09:20:38.899Z,1734.89
2023-04-14T09:20:40.965Z,1669.79
2023-04-14T09:21:53.897Z,1724.81
2023-04-14T09:22:26.961Z,1701.72
2023-04-14T09:23:22.829Z,1671.89
2023-04-14T09:24:18.295Z,1610.37
2023-04-14T09:25:13.753Z,1498.32
2023-04-14T09:26:09.399Z,1519.64
2023-04-14T09:27:04.760Z,1675.03
2023-04-14T09:28:01.499Z,1776.45
2023-04-14T09:28:56.972Z,1680.30
2023-04-14T09:29:52.802Z,1503.38
2023-04-14T09:30:48.301Z,1572.44
2023-04-14T09:31:43.909Z,1620.15
2023-04-14T09:32:39.268Z,1715.94
2023-04-14T09:33:35.851Z,1746.24
2023-04-14T09:34:31.251Z,1841.38
2023-04-14T09:35:26.510Z,1937.59
2023-04-14T09:36:21.937Z,1859.33
2023-04-14T09:37:16.899Z,1881.61
2023-04-14T09:38:12.003Z,1867.13
2023-04-14T09:39:07.080Z,1823.77
2023-04-14T09:40:02.145Z,1783.57
2023-04-14T09:40:57.184Z,1838.84
2023-04-14T09:41:52.311Z,1860.63
2023-04-14T09:42:47.275Z,1470.26
2023-04-14T09:43:42.381Z,1096.06
2023-04-14T09:44:37.374Z,1175.18
2023-04-14T09:45:32.458Z,1287.37
2023-04-14T09:46:27.978Z,1443.24
2023-04-14T09:47:23.246Z,1460.61
2023-04-14T09:48:18.985Z,1468.65
2023-04-14T09:49:14.426Z,1555.04
2023-04-14T09:50:10.005Z,1483.33
2023-04-14T09:51:06.453Z,1433.94
2023-04-14T09:52:01.083Z,1543.35
2023-04-14T09:52:56.812Z,1582.69
2023-04-14T09:53:52.211Z,1160.87
2023-04-14T09:54:47.604Z,1049.53
2023-04-14T09:55:43.263Z,1071.43
2023-04-14T09:56:38.895Z,1029.30
2023-04-14T09:57:34.111Z,1075.74
2023-04-14T09:58:31.174Z,1210.33
2023-04-14T09:59:26.011Z,1335.00
2023-04-14T10:00:22.013Z,1432.40
2023-04-14T10:01:17.635Z,1555.04
2023-04-14T10:02:13.130Z,1653.25
2023-04-14T10:03:08.800Z,1722.58
2023-04-14T10:04:04.348Z,1406.74
2023-04-14T10:05:00.191Z,1156.85
2023-04-14T10:05:55.767Z,1161.88
2023-04-14T10:06:51.107Z,884.11
2023-04-14T10:07:46.967Z,1068.00
2023-04-14T10:08:42.534Z,1015.21
2023-04-14T10:09:37.989Z,1034.88
2023-04-14T10:10:34.251Z,1160.87
2023-04-14T10:11:30.025Z,1307.54
2023-04-14T10:12:26.267Z,1454.25
2023-04-14T10:13:21.234Z,1344.41
2023-04-14T10:14:16.473Z,1470.26
2023-04-14T10:15:12.208Z,1663.55
2023-04-14T10:16:07.796Z,1789.54
2023-04-14T10:17:03.589Z,1907.14
2023-04-14T10:17:59.003Z,1904.42
2023-04-14T10:18:54.230Z,2019.67
2023-04-14T10:19:50.006Z,2079.44
2023-04-14T10:20:45.446Z,2158.45
2023-04-14T10:21:41.030Z,2158.45
2023-04-14T10:22:38.498Z,2153.23
2023-04-14T10:23:32.555Z,2221.30
2023-04-14T10:24:28.460Z,2301.72
2023-04-14T10:25:23.957Z,2260.80
2023-04-14T10:26:19.559Z,2206.61
2023-04-14T10:27:15.469Z,2120.73
2023-04-14T10:28:10.804Z,2079.44
2023-04-14T10:29:06.861Z,2074.59
2023-04-14T10:30:01.997Z,1833.79
2023-04-14T10:30:57.344Z,1598.80
2023-04-14T10:31:53.232Z,1614.27
2023-04-14T10:32:48.733Z,1639.04
2023-04-14T10:33:44.117Z,1596.89
2023-04-14T10:34:42.589Z,1488.29
2023-04-14T10:35:35.918Z,1449.51
2023-04-14T10:37:55.501Z,1867.13
2023-04-14T10:38:50.690Z,1927.80
2023-04-14T10:39:46.258Z,2174.27
2023-04-14T10:40:41.508Z,2383.93
2023-04-14T10:41:36.890Z,2458.56
2023-04-14T10:42:32.360Z,2350.35
2023-04-14T10:43:27.771Z,2094.12
2023-04-14T10:44:23.254Z,2084.31
2023-04-14T10:45:18.584Z,2199.34
2023-04-14T10:46:14.977Z,2392.47
2023-04-14T10:47:09.698Z,2490.67
2023-04-14T10:48:05.199Z,2511.76
2023-04-14T10:49:00.591Z,2617.65
2023-04-14T10:49:55.820Z,2564.84
2023-04-14T10:50:51.203Z,2493.00
2023-04-14T10:51:47.920Z,2547.71
2023-04-14T10:52:41.991Z,2386.06
2023-04-14T10:53:37.396Z,2181.37
2023-04-14T10:54:32.884Z,2137.71
2023-04-14T10:55:28.269Z,2221.30
2023-04-14T10:56:23.715Z,2217.61
2023-04-14T10:57:19.344Z,2188.52
2023-04-14T10:58:14.681Z,2144.58
2023-04-14T10:59:09.949Z,2050.69
2023-04-14T11:00:06.189Z,2179.59
2023-04-14T11:01:00.919Z,2280.10
2023-04-14T11:01:56.668Z,2346.22
2023-04-14T11:02:52.067Z,2403.24
2023-04-14T11:03:47.441Z,2465.37
2023-04-14T11:04:42.900Z,2483.72
2023-04-14T11:05:38.282Z,2582.21
2023-04-14T11:06:33.725Z,2643.56
2023-04-14T11:07:29.142Z,2602.34
2023-04-14T11:08:24.579Z,2804.62
2023-04-14T11:09:19.844Z,3178.57
2023-04-14T11:10:15.498Z,3337.50
2023-04-14T11:11:10.777Z,3320.90
2023-04-14T11:12:06.235Z,2889.61
2023-04-14T11:13:01.661Z,2287.92
2023-04-14T11:13:57.072Z,1780.00
2023-04-14T11:14:52.515Z,1983.66
2023-04-14T11:15:48.050Z,2309.69
2023-04-14T11:16:50.785Z,2542.86
2023-04-14T11:17:40.457Z,2807.57
2023-04-14T11:18:34.510Z,2874.06
2023-04-14T11:19:30.013Z,2940.53
2023-04-14T11:20:25.539Z,3095.65
2023-04-14T11:21:21.042Z,3213.00
2023-04-14T11:22:16.392Z,3268.05
2023-04-14T11:23:11.917Z,3201.44
2023-04-14T11:24:07.116Z,3205.28
2023-04-14T11:25:02.492Z,2615.08
2023-04-14T11:25:57.898Z,2474.51
2023-04-14T11:26:53.353Z,2130.89
2023-04-14T11:27:48.767Z,1911.24